sensor_id;sensor_type;location;lat;lon;timestamp;P1;durP1;ratioP1;P2;durP2;ratioP2
13609;SDS011;6876;50.788;4.940;2023-01-13T00:01:37;1999.90;;;999.90;;
13609;SDS011;6876;50.788;4.940;2023-01-13T00:04:24;1999.90;;;999.90;;
13609;SDS011;6876;50.788;4.940;2023-01-13T00:07:12;1999.90;;;999.90;;
13609;SDS011;6876;50.788;4.940;2023-01-13T00:09:59;1999.90;;;999.90;;
13609;SDS011;6876;50.788;4.940;2023-01-13T00:12:46;1999.90;;;999.90;;
13609;SDS011;6876;50.788;4.940;2023-01-13T00:15:34;1999.90;;;999.90;;
13609;SDS011;6876;50.788;4.940;2023-01-13T00:18:22;1999.90;;;999.90;;
13609;SDS011;6876;50.788;4.940;2023-01-13T00:21:11;1999.90;;;999.90;;
13609;SDS011;6876;50.788;4.940;2023-01-13T00:23:59;1999.90;;;999.90;;
13609;SDS011;6876;50.788;4.940;2023-01-13T00:26:46;1999.90;;;999.90;;
13609;SDS011;6876;50.788;4.940;2023-01-13T00:29:34;1999.90;;;999.90;;
13609;SDS011;6876;50.788;4.940;2023-01-13T00:32:21;1999.90;;;999.90;;
13609;SDS011;6876;50.788;4.940;2023-01-13T00:35:09;1999.90;;;999.90;;
13609;SDS011;6876;50.788;4.940;2023-01-13T00:37:57;1999.90;;;999.90;;
13609;SDS011;6876;50.788;4.940;2023-01-13T00:40:44;1999.90;;;999.90;;
13609;SDS011;6876;50.788;4.940;2023-01-13T00:43:40;1999.90;;;999.90;;
13609;SDS011;6876;50.788;4.940;2023-01-13T00:46:26;1999.90;;;999.90;;
13609;SDS011;6876;50.788;4.940;2023-01-13T00:49:13;1999.90;;;999.90;;
13609;SDS011;6876;50.788;4.940;2023-01-13T00:52:02;1999.90;;;999.90;;
13609;SDS011;6876;50.788;4.940;2023-01-13T00:54:49;1999.90;;;999.90;;
13609;SDS011;6876;50.788;4.940;2023-01-13T00:57:36;1999.90;;;999.90;;
13609;SDS011;6876;50.788;4.940;2023-01-13T01:00:24;1999.90;;;999.90;;
13609;SDS011;6876;50.788;4.940;2023-01-13T01:03:11;1999.90;;;999.90;;
13609;SDS011;6876;50.788;4.940;2023-01-13T01:06:02;1999.90;;;999.90;;
13609;SDS011;6876;50.788;4.940;2023-01-13T01:08:52;1999.90;;;999.90;;
13609;SDS011;6876;50.788;4.940;2023-01-13T01:11:41;1999.90;;;999.90;;
13609;SDS011;6876;50.788;4.940;2023-01-13T01:14:29;1999.90;;;999.90;;
13609;SDS011;6876;50.788;4.940;2023-01-13T01:17:16;1999.90;;;999.90;;
13609;SDS011;6876;50.788;4.940;2023-01-13T01:20:03;1999.90;;;999.90;;
13609;SDS011;6876;50.788;4.940;2023-01-13T01:22:51;1999.90;;;999.90;;
13609;SDS011;6876;50.788;4.940;2023-01-13T01:25:40;1999.90;;;999.90;;
13609;SDS011;6876;50.788;4.940;2023-01-13T01:28:27;1999.90;;;999.90;;
13609;SDS011;6876;50.788;4.940;2023-01-13T01:31:15;1999.90;;;999.90;;
13609;SDS011;6876;50.788;4.940;2023-01-13T01:34:03;1999.90;;;999.90;;
13609;SDS011;6876;50.788;4.940;2023-01-13T01:36:51;1999.90;;;999.90;;
13609;SDS011;6876;50.788;4.940;2023-01-13T01:39:38;1999.90;;;999.90;;
13609;SDS011;6876;50.788;4.940;2023-01-13T01:42:27;1999.90;;;999.90;;
13609;SDS011;6876;50.788;4.940;2023-01-13T01:45:31;1999.90;;;999.90;;
13609;SDS011;6876;50.788;4.940;2023-01-13T01:48:19;1999.90;;;999.90;;
13609;SDS011;6876;50.788;4.940;2023-01-13T01:51:07;1999.90;;;999.90;;
13609;SDS011;6876;50.788;4.940;2023-01-13T01:53:58;1999.90;;;999.90;;
13609;SDS011;6876;50.788;4.940;2023-01-13T01:56:48;1999.90;;;999.90;;
13609;SDS011;6876;50.788;4.940;2023-01-13T01:59:37;1999.90;;;999.90;;
13609;SDS011;6876;50.788;4.940;2023-01-13T02:02:25;1999.90;;;999.90;;
13609;SDS011;6876;50.788;4.940;2023-01-13T02:05:12;1999.90;;;999.90;;
13609;SDS011;6876;50.788;4.940;2023-01-13T02:08:00;1999.90;;;999.90;;
13609;SDS011;6876;50.788;4.940;2023-01-13T02:10:49;1999.90;;;999.90;;
13609;SDS011;6876;50.788;4.940;2023-01-13T02:13:39;1999.90;;;999.90;;
13609;SDS011;6876;50.788;4.940;2023-01-13T02:16:27;1999.90;;;999.90;;
13609;SDS011;6876;50.788;4.940;2023-01-13T02:19:19;1999.90;;;999.90;;
13609;SDS011;6876;50.788;4.940;2023-01-13T02:22:26;1999.90;;;999.90;;
13609;SDS011;6876;50.788;4.940;2023-01-13T02:25:38;1999.90;;;999.90;;
13609;SDS011;6876;50.788;4.940;2023-01-13T02:28:44;1999.90;;;999.90;;
13609;SDS011;6876;50.788;4.940;2023-01-13T02:32:09;1999.90;;;999.90;;
13609;SDS011;6876;50.788;4.940;2023-01-13T02:35:03;1999.90;;;999.90;;
13609;SDS011;6876;50.788;4.940;2023-01-13T02:37:53;1999.90;;;999.90;;
13609;SDS011;6876;50.788;4.940;2023-01-13T02:40:44;1999.90;;;999.90;;
13609;SDS011;6876;50.788;4.940;2023-01-13T02:43:40;1999.90;;;999.90;;
13609;SDS011;6876;50.788;4.940;2023-01-13T02:46:48;1999.90;;;999.90;;
13609;SDS011;6876;50.788;4.940;2023-01-13T02:49:41;1999.90;;;999.90;;
13609;SDS011;6876;50.788;4.940;2023-01-13T02:52:33;1999.90;;;999.90;;
13609;SDS011;6876;50.788;4.940;2023-01-13T02:55:25;1999.90;;;999.90;;
13609;SDS011;6876;50.788;4.940;2023-01-13T02:58:18;1999.90;;;999.90;;
13609;SDS011;6876;50.788;4.940;2023-01-13T03:01:09;1999.90;;;999.90;;
13609;SDS011;6876;50.788;4.940;2023-01-13T03:03:57;1999.90;;;999.90;;
13609;SDS011;6876;50.788;4.940;2023-01-13T03:06:47;1999.90;;;999.90;;
13609;SDS011;6876;50.788;4.940;2023-01-13T03:09:48;1999.90;;;999.90;;
13609;SDS011;6876;50.788;4.940;2023-01-13T03:12:45;1999.90;;;999.90;;
13609;SDS011;6876;50.788;4.940;2023-01-13T03:15:41;1999.90;;;999.90;;
13609;SDS011;6876;50.788;4.940;2023-01-13T03:18:34;1999.90;;;999.90;;
13609;SDS011;6876;50.788;4.940;2023-01-13T03:21:29;1999.90;;;999.90;;
13609;SDS011;6876;50.788;4.940;2023-01-13T03:24:24;1999.90;;;999.90;;
13609;SDS011;6876;50.788;4.940;2023-01-13T03:27:18;1999.90;;;999.90;;
13609;SDS011;6876;50.788;4.940;2023-01-13T03:30:11;1999.90;;;999.90;;
13609;SDS011;6876;50.788;4.940;2023-01-13T03:33:04;1999.90;;;999.90;;
13609;SDS011;6876;50.788;4.940;2023-01-13T03:36:01;1999.90;;;999.90;;
13609;SDS011;6876;50.788;4.940;2023-01-13T03:38:51;1999.90;;;999.90;;
13609;SDS011;6876;50.788;4.940;2023-01-13T03:41:42;1999.90;;;999.90;;
13609;SDS011;6876;50.788;4.940;2023-01-13T03:44:37;1999.90;;;999.90;;
13609;SDS011;6876;50.788;4.940;2023-01-13T03:47:29;1999.90;;;999.90;;
13609;SDS011;6876;50.788;4.940;2023-01-13T03:50:21;1999.90;;;999.90;;
13609;SDS011;6876;50.788;4.940;2023-01-13T03:53:13;1999.90;;;999.90;;
13609;SDS011;6876;50.788;4.940;2023-01-13T03:56:06;1999.90;;;999.90;;
13609;SDS011;6876;50.788;4.940;2023-01-13T03:58:58;1999.90;;;999.90;;
13609;SDS011;6876;50.788;4.940;2023-01-13T04:01:50;1999.90;;;999.90;;
13609;SDS011;6876;50.788;4.940;2023-01-13T04:04:46;1999.90;;;999.90;;
13609;SDS011;6876;50.788;4.940;2023-01-13T04:07:40;1999.90;;;999.90;;
13609;SDS011;6876;50.788;4.940;2023-01-13T04:10:36;1999.90;;;999.90;;
13609;SDS011;6876;50.788;4.940;2023-01-13T04:13:28;1999.90;;;999.90;;
13609;SDS011;6876;50.788;4.940;2023-01-13T04:16:19;1999.90;;;999.90;;
13609;SDS011;6876;50.788;4.940;2023-01-13T04:19:06;1999.90;;;999.90;;
13609;SDS011;6876;50.788;4.940;2023-01-13T04:21:54;1999.90;;;999.90;;
13609;SDS011;6876;50.788;4.940;2023-01-13T04:24:41;1999.90;;;999.90;;
13609;SDS011;6876;50.788;4.940;2023-01-13T04:27:28;1999.90;;;999.90;;
13609;SDS011;6876;50.788;4.940;2023-01-13T04:30:16;1999.90;;;999.90;;
13609;SDS011;6876;50.788;4.940;2023-01-13T04:33:05;1999.90;;;999.90;;
13609;SDS011;6876;50.788;4.940;2023-01-13T04:35:52;1999.90;;;999.90;;
13609;SDS011;6876;50.788;4.940;2023-01-13T04:38:39;1999.90;;;999.90;;
13609;SDS011;6876;50.788;4.940;2023-01-13T04:41:27;1999.90;;;999.90;;
13609;SDS011;6876;50.788;4.940;2023-01-13T04:44:34;1999.90;;;999.90;;
13609;SDS011;6876;50.788;4.940;2023-01-13T04:47:21;147.37;;;139.73;;
13609;SDS011;6876;50.788;4.940;2023-01-13T04:50:10;740.50;;;403.33;;
13609;SDS011;6876;50.788;4.940;2023-01-13T04:52:57;1999.90;;;999.90;;
13609;SDS011;6876;50.788;4.940;2023-01-13T04:55:45;1999.90;;;999.90;;
13609;SDS011;6876;50.788;4.940;2023-01-13T04:58:34;1999.90;;;999.90;;
13609;SDS011;6876;50.788;4.940;2023-01-13T05:01:21;1999.90;;;999.90;;
13609;SDS011;6876;50.788;4.940;2023-01-13T05:04:08;1999.90;;;999.90;;
13609;SDS011;6876;50.788;4.940;2023-01-13T05:06:57;1999.90;;;999.90;;
13609;SDS011;6876;50.788;4.940;2023-01-13T05:09:44;1999.90;;;999.90;;
13609;SDS011;6876;50.788;4.940;2023-01-13T05:12:31;1999.90;;;999.90;;
13609;SDS011;6876;50.788;4.940;2023-01-13T05:15:49;1999.90;;;999.90;;
13609;SDS011;6876;50.788;4.940;2023-01-13T05:19:02;1999.90;;;999.90;;
13609;SDS011;6876;50.788;4.940;2023-01-13T05:21:49;1999.90;;;999.90;;
13609;SDS011;6876;50.788;4.940;2023-01-13T05:24:55;1999.90;;;999.90;;
13609;SDS011;6876;50.788;4.940;2023-01-13T05:27:59;1999.90;;;999.90;;
13609;SDS011;6876;50.788;4.940;2023-01-13T05:30:47;1999.90;;;999.90;;
13609;SDS011;6876;50.788;4.940;2023-01-13T05:33:35;1999.90;;;999.90;;
13609;SDS011;6876;50.788;4.940;2023-01-13T05:36:22;1999.90;;;999.90;;
13609;SDS011;6876;50.788;4.940;2023-01-13T05:39:09;1999.90;;;999.90;;
13609;SDS011;6876;50.788;4.940;2023-01-13T05:41:58;1999.90;;;999.90;;
13609;SDS011;6876;50.788;4.940;2023-01-13T05:45:03;1999.90;;;999.90;;
13609;SDS011;6876;50.788;4.940;2023-01-13T05:47:51;1999.90;;;999.90;;
13609;SDS011;6876;50.788;4.940;2023-01-13T05:50:38;1999.90;;;999.90;;
13609;SDS011;6876;50.788;4.940;2023-01-13T05:53:26;1999.90;;;999.90;;
13609;SDS011;6876;50.788;4.940;2023-01-13T05:56:14;1999.90;;;999.90;;
13609;SDS011;6876;50.788;4.940;2023-01-13T05:59:03;1999.90;;;999.90;;
13609;SDS011;6876;50.788;4.940;2023-01-13T06:01:51;1999.90;;;999.90;;
13609;SDS011;6876;50.788;4.940;2023-01-13T06:04:38;1999.90;;;999.90;;
13609;SDS011;6876;50.788;4.940;2023-01-13T06:07:26;1999.90;;;999.90;;
13609;SDS011;6876;50.788;4.940;2023-01-13T06:10:13;1999.90;;;999.90;;
13609;SDS011;6876;50.788;4.940;2023-01-13T06:13:00;1999.90;;;999.90;;
13609;SDS011;6876;50.788;4.940;2023-01-13T06:15:49;1999.90;;;999.90;;
13609;SDS011;6876;50.788;4.940;2023-01-13T06:18:36;1999.90;;;999.90;;
13609;SDS011;6876;50.788;4.940;2023-01-13T06:21:23;1999.90;;;999.90;;
13609;SDS011;6876;50.788;4.940;2023-01-13T06:24:10;1999.90;;;999.90;;
13609;SDS011;6876;50.788;4.940;2023-01-13T06:26:58;1999.90;;;999.90;;
13609;SDS011;6876;50.788;4.940;2023-01-13T06:29:45;1999.90;;;999.90;;
13609;SDS011;6876;50.788;4.940;2023-01-13T06:32:35;1999.90;;;999.90;;
13609;SDS011;6876;50.788;4.940;2023-01-13T06:35:29;1999.90;;;999.90;;
13609;SDS011;6876;50.788;4.940;2023-01-13T06:38:20;1999.90;;;999.90;;
13609;SDS011;6876;50.788;4.940;2023-01-13T06:41:10;1999.90;;;999.90;;
13609;SDS011;6876;50.788;4.940;2023-01-13T06:43:57;1999.90;;;999.90;;
13609;SDS011;6876;50.788;4.940;2023-01-13T06:46:44;1999.90;;;999.90;;
13609;SDS011;6876;50.788;4.940;2023-01-13T06:49:33;1999.90;;;999.90;;
13609;SDS011;6876;50.788;4.940;2023-01-13T06:52:20;1999.90;;;999.90;;
13609;SDS011;6876;50.788;4.940;2023-01-13T06:55:08;1999.90;;;999.90;;
13609;SDS011;6876;50.788;4.940;2023-01-13T06:57:55;1999.90;;;999.90;;
13609;SDS011;6876;50.788;4.940;2023-01-13T07:00:43;1999.90;;;999.90;;
13609;SDS011;6876;50.788;4.940;2023-01-13T07:03:36;1999.90;;;999.90;;
13609;SDS011;6876;50.788;4.940;2023-01-13T07:06:26;1999.90;;;999.90;;
13609;SDS011;6876;50.788;4.940;2023-01-13T07:09:14;1999.90;;;999.90;;
13609;SDS011;6876;50.788;4.940;2023-01-13T07:12:01;1999.90;;;999.90;;
13609;SDS011;6876;50.788;4.940;2023-01-13T07:14:48;1999.90;;;999.90;;
13609;SDS011;6876;50.788;4.940;2023-01-13T07:17:53;1999.90;;;999.90;;
13609;SDS011;6876;50.788;4.940;2023-01-13T07:20:40;1999.90;;;999.90;;
13609;SDS011;6876;50.788;4.940;2023-01-13T07:23:29;1999.90;;;999.90;;
13609;SDS011;6876;50.788;4.940;2023-01-13T07:26:17;1999.90;;;999.90;;
13609;SDS011;6876;50.788;4.940;2023-01-13T07:29:05;1999.90;;;999.90;;
13609;SDS011;6876;50.788;4.940;2023-01-13T07:31:52;1999.90;;;999.90;;
13609;SDS011;6876;50.788;4.940;2023-01-13T07:34:39;1999.90;;;999.90;;
13609;SDS011;6876;50.788;4.940;2023-01-13T07:37:27;1999.90;;;999.90;;
13609;SDS011;6876;50.788;4.940;2023-01-13T07:40:16;1999.90;;;999.90;;
13609;SDS011;6876;50.788;4.940;2023-01-13T07:43:04;1999.90;;;999.90;;
13609;SDS011;6876;50.788;4.940;2023-01-13T07:46:08;1999.90;;;999.90;;
13609;SDS011;6876;50.788;4.940;2023-01-13T07:48:56;1999.90;;;999.90;;
13609;SDS011;6876;50.788;4.940;2023-01-13T07:51:43;1999.90;;;999.90;;
13609;SDS011;6876;50.788;4.940;2023-01-13T07:54:30;1999.90;;;999.90;;
13609;SDS011;6876;50.788;4.940;2023-01-13T07:57:19;1999.90;;;999.90;;
13609;SDS011;6876;50.788;4.940;2023-01-13T08:00:07;1999.90;;;999.90;;
13609;SDS011;6876;50.788;4.940;2023-01-13T08:02:55;1999.90;;;999.90;;
13609;SDS011;6876;50.788;4.940;2023-01-13T08:05:46;1999.90;;;999.90;;
13609;SDS011;6876;50.788;4.940;2023-01-13T08:08:33;1999.90;;;999.90;;
13609;SDS011;6876;50.788;4.940;2023-01-13T08:11:21;1999.90;;;999.90;;
13609;SDS011;6876;50.788;4.940;2023-01-13T08:14:10;1999.90;;;999.90;;
13609;SDS011;6876;50.788;4.940;2023-01-13T08:16:57;1999.90;;;999.90;;
13609;SDS011;6876;50.788;4.940;2023-01-13T08:19:44;1999.90;;;999.90;;
13609;SDS011;6876;50.788;4.940;2023-01-13T08:22:31;1999.90;;;999.90;;
13609;SDS011;6876;50.788;4.940;2023-01-13T08:25:18;1999.90;;;999.90;;
13609;SDS011;6876;50.788;4.940;2023-01-13T08:28:06;1999.90;;;999.90;;
13609;SDS011;6876;50.788;4.940;2023-01-13T08:30:54;1999.90;;;999.90;;
13609;SDS011;6876;50.788;4.940;2023-01-13T08:33:45;1999.90;;;999.90;;
13609;SDS011;6876;50.788;4.940;2023-01-13T08:36:32;1999.90;;;999.90;;
13609;SDS011;6876;50.788;4.940;2023-01-13T08:39:20;1999.90;;;999.90;;
13609;SDS011;6876;50.788;4.940;2023-01-13T08:42:14;1999.90;;;999.90;;
13609;SDS011;6876;50.788;4.940;2023-01-13T08:45:01;1999.90;;;999.90;;
13609;SDS011;6876;50.788;4.940;2023-01-13T08:47:51;1999.90;;;999.90;;
13609;SDS011;6876;50.788;4.940;2023-01-13T08:50:38;727.20;;;390.23;;
13609;SDS011;6876;50.788;4.940;2023-01-13T08:53:25;1999.90;;;999.90;;
13609;SDS011;6876;50.788;4.940;2023-01-13T08:56:13;1356.77;;;688.70;;
13609;SDS011;6876;50.788;4.940;2023-01-13T08:59:01;1999.90;;;999.90;;
13609;SDS011;6876;50.788;4.940;2023-01-13T09:01:48;720.30;;;383.60;;
13609;SDS011;6876;50.788;4.940;2023-01-13T09:04:37;88.23;;;82.60;;
13609;SDS011;6876;50.788;4.940;2023-01-13T09:07:24;1999.90;;;999.90;;
13609;SDS011;6876;50.788;4.940;2023-01-13T09:10:12;1999.90;;;999.90;;
13609;SDS011;6876;50.788;4.940;2023-01-13T09:13:00;1999.90;;;999.90;;
13609;SDS011;6876;50.788;4.940;2023-01-13T09:15:58;91.57;;;85.93;;
13609;SDS011;6876;50.788;4.940;2023-01-13T09:18:45;118.63;;;111.60;;
13609;SDS011;6876;50.788;4.940;2023-01-13T09:21:34;102.70;;;96.33;;
13609;SDS011;6876;50.788;4.940;2023-01-13T09:24:21;150.40;;;141.93;;
13609;SDS011;6876;50.788;4.940;2023-01-13T09:27:13;136.33;;;126.80;;
13609;SDS011;6876;50.788;4.940;2023-01-13T09:30:01;130.03;;;121.93;;
13609;SDS011;6876;50.788;4.940;2023-01-13T09:32:48;112.57;;;105.53;;
13609;SDS011;6876;50.788;4.940;2023-01-13T09:35:56;112.70;;;106.37;;
13609;SDS011;6876;50.788;4.940;2023-01-13T09:38:45;148.87;;;138.77;;
13609;SDS011;6876;50.788;4.940;2023-01-13T09:41:33;110.43;;;103.83;;
13609;SDS011;6876;50.788;4.940;2023-01-13T09:44:47;112.73;;;105.90;;
13609;SDS011;6876;50.788;4.940;2023-01-13T09:47:42;138.20;;;130.00;;
13609;SDS011;6876;50.788;4.940;2023-01-13T09:50:47;136.27;;;127.80;;
13609;SDS011;6876;50.788;4.940;2023-01-13T09:53:42;106.83;;;100.20;;
13609;SDS011;6876;50.788;4.940;2023-01-13T09:56:35;161.33;;;151.80;;
13609;SDS011;6876;50.788;4.940;2023-01-13T09:59:30;137.33;;;129.13;;
13609;SDS011;6876;50.788;4.940;2023-01-13T10:02:27;137.83;;;130.37;;
13609;SDS011;6876;50.788;4.940;2023-01-13T10:05:21;103.30;;;96.00;;
13609;SDS011;6876;50.788;4.940;2023-01-13T10:08:18;97.53;;;91.13;;
13609;SDS011;6876;50.788;4.940;2023-01-13T10:11:12;85.47;;;80.43;;
13609;SDS011;6876;50.788;4.940;2023-01-13T10:14:21;87.27;;;81.47;;
13609;SDS011;6876;50.788;4.940;2023-01-13T10:17:14;96.20;;;89.10;;
13609;SDS011;6876;50.788;4.940;2023-01-13T10:20:11;100.17;;;94.27;;
13609;SDS011;6876;50.788;4.940;2023-01-13T10:23:06;114.37;;;106.70;;
13609;SDS011;6876;50.788;4.940;2023-01-13T10:26:15;119.03;;;110.27;;
13609;SDS011;6876;50.788;4.940;2023-01-13T10:29:18;94.43;;;88.20;;
13609;SDS011;6876;50.788;4.940;2023-01-13T10:32:09;88.23;;;83.00;;
13609;SDS011;6876;50.788;4.940;2023-01-13T10:34:56;88.13;;;82.00;;
13609;SDS011;6876;50.788;4.940;2023-01-13T10:37:54;81.67;;;76.60;;
13609;SDS011;6876;50.788;4.940;2023-01-13T10:40:46;113.90;;;106.23;;
13609;SDS011;6876;50.788;4.940;2023-01-13T10:43:36;78.87;;;73.87;;
13609;SDS011;6876;50.788;4.940;2023-01-13T10:46:24;84.63;;;79.27;;
13609;SDS011;6876;50.788;4.940;2023-01-13T10:49:23;89.90;;;84.67;;
13609;SDS011;6876;50.788;4.940;2023-01-13T10:52:23;147.23;;;135.07;;
13609;SDS011;6876;50.788;4.940;2023-01-13T10:55:23;88.93;;;84.33;;
13609;SDS011;6876;50.788;4.940;2023-01-13T10:58:12;113.03;;;104.13;;
13609;SDS011;6876;50.788;4.940;2023-01-13T11:01:04;98.30;;;91.80;;
13609;SDS011;6876;50.788;4.940;2023-01-13T11:03:53;71.10;;;66.57;;
13609;SDS011;6876;50.788;4.940;2023-01-13T11:06:43;119.83;;;112.70;;
13609;SDS011;6876;50.788;4.940;2023-01-13T11:09:31;123.30;;;116.97;;
13609;SDS011;6876;50.788;4.940;2023-01-13T11:12:29;94.53;;;89.07;;
13609;SDS011;6876;50.788;4.940;2023-01-13T11:15:18;109.37;;;102.90;;
13609;SDS011;6876;50.788;4.940;2023-01-13T11:18:12;95.13;;;89.57;;
13609;SDS011;6876;50.788;4.940;2023-01-13T11:21:08;98.90;;;93.07;;
13609;SDS011;6876;50.788;4.940;2023-01-13T11:24:03;118.80;;;111.70;;
13609;SDS011;6876;50.788;4.940;2023-01-13T11:26:58;84.60;;;79.30;;
13609;SDS011;6876;50.788;4.940;2023-01-13T11:29:54;142.43;;;132.00;;
13609;SDS011;6876;50.788;4.940;2023-01-13T11:32:52;82.07;;;77.03;;
13609;SDS011;6876;50.788;4.940;2023-01-13T11:35:50;77.20;;;72.23;;
13609;SDS011;6876;50.788;4.940;2023-01-13T11:38:47;76.03;;;70.37;;
13609;SDS011;6876;50.788;4.940;2023-01-13T11:41:40;67.77;;;63.27;;
13609;SDS011;6876;50.788;4.940;2023-01-13T11:44:31;69.07;;;63.77;;
13609;SDS011;6876;50.788;4.940;2023-01-13T11:47:24;92.57;;;85.87;;
13609;SDS011;6876;50.788;4.940;2023-01-13T11:50:13;73.93;;;68.57;;
13609;SDS011;6876;50.788;4.940;2023-01-13T11:53:08;68.10;;;63.23;;
13609;SDS011;6876;50.788;4.940;2023-01-13T11:56:12;69.00;;;64.23;;
13609;SDS011;6876;50.788;4.940;2023-01-13T12:02:29;85.33;;;79.40;;
13609;SDS011;6876;50.788;4.940;2023-01-13T12:05:33;72.20;;;66.40;;
13609;SDS011;6876;50.788;4.940;2023-01-13T12:08:28;75.57;;;69.77;;
13609;SDS011;6876;50.788;4.940;2023-01-13T12:11:29;76.67;;;71.70;;
13609;SDS011;6876;50.788;4.940;2023-01-13T12:14:46;80.37;;;74.87;;
13609;SDS011;6876;50.788;4.940;2023-01-13T12:18:16;86.40;;;81.07;;
13609;SDS011;6876;50.788;4.940;2023-01-13T12:21:20;115.63;;;108.67;;
13609;SDS011;6876;50.788;4.940;2023-01-13T12:24:13;82.03;;;76.87;;
13609;SDS011;6876;50.788;4.940;2023-01-13T12:27:09;78.83;;;73.33;;
13609;SDS011;6876;50.788;4.940;2023-01-13T12:30:01;79.53;;;74.10;;
13609;SDS011;6876;50.788;4.940;2023-01-13T12:32:59;79.93;;;74.63;;
13609;SDS011;6876;50.788;4.940;2023-01-13T12:35:57;77.77;;;71.97;;
13609;SDS011;6876;50.788;4.940;2023-01-13T12:38:47;87.67;;;82.10;;
13609;SDS011;6876;50.788;4.940;2023-01-13T12:41:43;88.43;;;82.97;;
13609;SDS011;6876;50.788;4.940;2023-01-13T12:45:06;82.93;;;77.07;;
13609;SDS011;6876;50.788;4.940;2023-01-13T12:48:16;93.87;;;87.63;;
13609;SDS011;6876;50.788;4.940;2023-01-13T12:52:00;100.67;;;94.57;;
13609;SDS011;6876;50.788;4.940;2023-01-13T12:55:02;85.20;;;80.03;;
13609;SDS011;6876;50.788;4.940;2023-01-13T12:58:15;82.63;;;77.67;;
13609;SDS011;6876;50.788;4.940;2023-01-13T13:01:09;89.63;;;83.73;;
13609;SDS011;6876;50.788;4.940;2023-01-13T13:07:06;1999.90;;;999.90;;
13609;SDS011;6876;50.788;4.940;2023-01-13T13:09:56;83.00;;;77.63;;
13609;SDS011;6876;50.788;4.940;2023-01-13T13:12:52;1360.77;;;692.40;;
13609;SDS011;6876;50.788;4.940;2023-01-13T13:19:45;1999.90;;;999.90;;
13609;SDS011;6876;50.788;4.940;2023-01-13T13:22:37;1360.07;;;691.80;;
13609;SDS011;6876;50.788;4.940;2023-01-13T13:25:29;80.60;;;74.97;;
13609;SDS011;6876;50.788;4.940;2023-01-13T13:28:16;77.00;;;72.03;;
13609;SDS011;6876;50.788;4.940;2023-01-13T13:31:07;1999.90;;;999.90;;
13609;SDS011;6876;50.788;4.940;2023-01-13T13:34:14;1999.90;;;999.90;;
13609;SDS011;6876;50.788;4.940;2023-01-13T13:37:28;717.60;;;380.83;;
13609;SDS011;6876;50.788;4.940;2023-01-13T13:40:41;75.03;;;70.13;;
13609;SDS011;6876;50.788;4.940;2023-01-13T13:43:48;69.50;;;64.57;;
13609;SDS011;6876;50.788;4.940;2023-01-13T13:46:55;79.00;;;74.27;;
13609;SDS011;6876;50.788;4.940;2023-01-13T13:49:45;79.83;;;75.13;;
13609;SDS011;6876;50.788;4.940;2023-01-13T13:52:37;86.27;;;81.00;;
13609;SDS011;6876;50.788;4.940;2023-01-13T13:55:27;106.37;;;99.40;;
13609;SDS011;6876;50.788;4.940;2023-01-13T13:58:15;90.67;;;84.80;;
13609;SDS011;6876;50.788;4.940;2023-01-13T14:01:03;95.67;;;89.90;;
13609;SDS011;6876;50.788;4.940;2023-01-13T14:04:05;97.60;;;91.43;;
13609;SDS011;6876;50.788;4.940;2023-01-13T14:06:57;90.30;;;84.70;;
13609;SDS011;6876;50.788;4.940;2023-01-13T14:09:51;81.63;;;76.33;;
13609;SDS011;6876;50.788;4.940;2023-01-13T14:12:41;101.10;;;94.97;;
13609;SDS011;6876;50.788;4.940;2023-01-13T14:15:29;81.20;;;75.40;;
13609;SDS011;6876;50.788;4.940;2023-01-13T14:18:19;108.27;;;101.57;;
13609;SDS011;6876;50.788;4.940;2023-01-13T14:21:16;77.40;;;72.63;;
13609;SDS011;6876;50.788;4.940;2023-01-13T14:24:12;72.83;;;67.97;;
13609;SDS011;6876;50.788;4.940;2023-01-13T14:27:12;73.90;;;69.30;;
13609;SDS011;6876;50.788;4.940;2023-01-13T14:30:01;66.07;;;61.13;;
13609;SDS011;6876;50.788;4.940;2023-01-13T14:32:49;72.40;;;67.90;;
13609;SDS011;6876;50.788;4.940;2023-01-13T14:35:38;68.57;;;64.00;;
13609;SDS011;6876;50.788;4.940;2023-01-13T14:38:46;75.10;;;70.13;;
13609;SDS011;6876;50.788;4.940;2023-01-13T14:41:35;72.00;;;66.83;;
13609;SDS011;6876;50.788;4.940;2023-01-13T14:44:25;79.47;;;73.63;;
13609;SDS011;6876;50.788;4.940;2023-01-13T14:47:18;98.73;;;92.63;;
13609;SDS011;6876;50.788;4.940;2023-01-13T14:50:15;86.90;;;80.77;;
13609;SDS011;6876;50.788;4.940;2023-01-13T14:59:41;91.70;;;85.63;;
13609;SDS011;6876;50.788;4.940;2023-01-13T15:02:37;92.07;;;85.53;;
13609;SDS011;6876;50.788;4.940;2023-01-13T15:05:32;93.47;;;87.80;;
13609;SDS011;6876;50.788;4.940;2023-01-13T15:08:25;87.60;;;82.40;;
13609;SDS011;6876;50.788;4.940;2023-01-13T15:11:20;87.77;;;82.60;;
13609;SDS011;6876;50.788;4.940;2023-01-13T15:14:09;64.97;;;60.83;;
13609;SDS011;6876;50.788;4.940;2023-01-13T15:16:58;104.53;;;98.67;;
13609;SDS011;6876;50.788;4.940;2023-01-13T15:19:47;102.30;;;96.17;;
13609;SDS011;6876;50.788;4.940;2023-01-13T15:22:34;86.70;;;81.27;;
13609;SDS011;6876;50.788;4.940;2023-01-13T15:25:21;100.97;;;95.10;;
13609;SDS011;6876;50.788;4.940;2023-01-13T15:28:12;95.47;;;89.37;;
13609;SDS011;6876;50.788;4.940;2023-01-13T15:31:02;74.40;;;69.83;;
13609;SDS011;6876;50.788;4.940;2023-01-13T15:33:51;113.60;;;107.10;;
13609;SDS011;6876;50.788;4.940;2023-01-13T15:36:38;96.40;;;91.13;;
13609;SDS011;6876;50.788;4.940;2023-01-13T15:39:25;101.87;;;95.97;;
13609;SDS011;6876;50.788;4.940;2023-01-13T15:42:13;91.10;;;85.60;;
13609;SDS011;6876;50.788;4.940;2023-01-13T15:45:17;111.53;;;104.33;;
13609;SDS011;6876;50.788;4.940;2023-01-13T15:48:25;94.93;;;89.33;;
13609;SDS011;6876;50.788;4.940;2023-01-13T15:51:16;105.40;;;99.40;;
13609;SDS011;6876;50.788;4.940;2023-01-13T15:54:04;86.07;;;80.73;;
13609;SDS011;6876;50.788;4.940;2023-01-13T15:56:51;99.80;;;93.80;;
13609;SDS011;6876;50.788;4.940;2023-01-13T15:59:39;88.67;;;83.33;;
13609;SDS011;6876;50.788;4.940;2023-01-13T16:02:26;94.90;;;88.67;;
13609;SDS011;6876;50.788;4.940;2023-01-13T16:05:15;89.93;;;84.53;;
13609;SDS011;6876;50.788;4.940;2023-01-13T16:08:04;96.17;;;90.63;;
13609;SDS011;6876;50.788;4.940;2023-01-13T16:10:55;93.17;;;87.77;;
13609;SDS011;6876;50.788;4.940;2023-01-13T16:13:42;95.87;;;89.97;;
13609;SDS011;6876;50.788;4.940;2023-01-13T16:16:29;94.40;;;88.27;;
13609;SDS011;6876;50.788;4.940;2023-01-13T16:19:17;82.77;;;77.30;;
13609;SDS011;6876;50.788;4.940;2023-01-13T16:22:04;80.37;;;75.47;;
13609;SDS011;6876;50.788;4.940;2023-01-13T16:24:53;78.83;;;73.87;;
13609;SDS011;6876;50.788;4.940;2023-01-13T16:27:41;76.53;;;72.27;;
13609;SDS011;6876;50.788;4.940;2023-01-13T16:30:29;85.57;;;80.60;;
13609;SDS011;6876;50.788;4.940;2023-01-13T16:33:17;89.00;;;83.40;;
13609;SDS011;6876;50.788;4.940;2023-01-13T16:36:07;91.37;;;85.90;;
13609;SDS011;6876;50.788;4.940;2023-01-13T16:38:58;70.87;;;66.67;;
13609;SDS011;6876;50.788;4.940;2023-01-13T16:41:47;105.73;;;99.83;;
13609;SDS011;6876;50.788;4.940;2023-01-13T16:44:35;93.37;;;87.60;;
13609;SDS011;6876;50.788;4.940;2023-01-13T16:47:22;78.57;;;73.70;;
13609;SDS011;6876;50.788;4.940;2023-01-13T16:50:13;78.43;;;73.53;;
13609;SDS011;6876;50.788;4.940;2023-01-13T16:53:06;74.83;;;70.20;;